Fort Yates, North Dakota
Current Conditions -  °F | °C
As of 11:55 AM on Saturday 25 Oct 2014 (Local Time) from K7L2 Reporting Station
Clear Clear  
Wind Chill: 57°   Ceiling: Unl
Heat Index: 57°   Visibility: 10mi
Dew Point: 32°   Wind: 7mph
Humidity: 38%   Direction: 170°S
Pressure: 30.15"   Gusts: NA
Location:  46.09°N, 100.64°W
Report Text: K7L2 251755Z AUTO 17006KT 10SM CLR 14/00 A3015 RMK AO2 PWINO PNO
Loading
Personal Weather Stations






























Interactive Weather Map
Tropical Storm Tracking
New forecast layout! Learn more

10-Day Weather Forecast

Advertisements
Track Severe Weather on mobile